createdAt,value
2022-09-26T00:01:18.944Z,77.00
2022-09-26T00:03:48.391Z,70.60
2022-09-26T00:06:17.567Z,72.50
2022-09-26T00:08:45.392Z,70.60
2022-09-26T00:11:13.473Z,75.10
2022-09-26T00:13:40.834Z,73.20
2022-09-26T00:16:09.187Z,77.60
2022-09-26T00:18:38.838Z,78.00
2022-09-26T00:21:12.928Z,84.40
2022-09-26T00:23:41.480Z,79.90
2022-09-26T00:26:08.402Z,95.80
2022-09-26T00:28:35.247Z,91.10
2022-09-26T00:31:10.150Z,89.40
2022-09-26T00:33:37.553Z,85.40
2022-09-26T00:36:05.222Z,87.70
2022-09-26T00:38:32.478Z,100.20
2022-09-26T00:40:59.565Z,96.60
2022-09-26T00:43:41.424Z,89.70
2022-09-26T00:46:21.075Z,98.40
2022-09-26T00:48:53.173Z,93.90
2022-09-26T00:51:19.942Z,101.30
2022-09-26T00:53:48.668Z,100.10
2022-09-26T00:56:22.426Z,97.10
2022-09-26T00:58:54.912Z,108.40
2022-09-26T01:01:21.856Z,108.00
2022-09-26T01:03:48.709Z,101.80
2022-09-26T01:06:16.076Z,102.20
2022-09-26T01:09:08.237Z,101.50
2022-09-26T01:11:35.996Z,91.10
2022-09-26T01:14:03.976Z,106.40
2022-09-26T01:16:31.793Z,102.60
2022-09-26T01:19:00.544Z,103.30
2022-09-26T01:21:43.671Z,108.10
2022-09-26T01:24:58.655Z,119.20
2022-09-26T01:27:44.443Z,102.00
2022-09-26T01:30:21.259Z,94.90
2022-09-26T01:33:36.825Z,104.60
2022-09-26T01:36:19.345Z,87.70
2022-09-26T01:38:58.999Z,92.00
2022-09-26T01:41:53.497Z,105.70
2022-09-26T01:44:47.887Z,86.70
2022-09-26T01:47:24.104Z,87.60
2022-09-26T01:50:00.927Z,91.30
2022-09-26T01:52:28.976Z,92.60
2022-09-26T01:55:08.153Z,97.80
2022-09-26T01:58:09.507Z,102.70
2022-09-26T02:00:38.202Z,89.60
2022-09-26T02:03:06.065Z,86.10
2022-09-26T02:05:44.273Z,94.60
2022-09-26T02:08:26.886Z,92.20
2022-09-26T02:11:01.726Z,93.60
2022-09-26T02:13:31.228Z,89.50
2022-09-26T02:16:02.505Z,97.40
2022-09-26T02:18:47.832Z,97.20
2022-09-26T02:21:20.447Z,89.60
2022-09-26T02:23:48.316Z,95.20
2022-09-26T02:26:15.374Z,103.30
2022-09-26T02:28:42.325Z,104.30
2022-09-26T02:31:09.066Z,104.50
2022-09-26T02:33:36.629Z,99.20
2022-09-26T02:36:05.981Z,106.60
2022-09-26T02:38:34.063Z,100.80
2022-09-26T02:41:27.884Z,114.50
2022-09-26T02:44:17.461Z,111.00
2022-09-26T02:47:25.984Z,102.60
2022-09-26T02:49:59.449Z,98.10
2022-09-26T02:52:41.381Z,101.60
2022-09-26T02:55:35.979Z,111.30
2022-09-26T02:58:03.538Z,102.80
2022-09-26T03:00:51.516Z,105.30
2022-09-26T03:03:22.054Z,103.70
2022-09-26T03:08:21.474Z,86.40
2022-09-26T03:10:48.787Z,105.80
2022-09-26T03:13:16.866Z,123.90
2022-09-26T03:15:46.990Z,104.90
2022-09-26T03:18:16.530Z,136.10
2022-09-26T03:20:44.066Z,142.30
2022-09-26T03:23:10.920Z,161.60
2022-09-26T03:25:38.993Z,141.20
2022-09-26T03:28:06.455Z,148.30
2022-09-26T03:30:34.188Z,153.00
2022-09-26T03:33:03.019Z,149.80
2022-09-26T03:35:30.379Z,148.90
2022-09-26T03:37:57.841Z,155.30
2022-09-26T03:40:25.267Z,157.70
2022-09-26T03:42:52.459Z,159.80
2022-09-26T03:45:20.624Z,152.90
2022-09-26T03:47:47.996Z,170.70
2022-09-26T03:50:16.501Z,159.00
2022-09-26T03:52:43.642Z,158.40
2022-09-26T03:55:11.108Z,163.10
2022-09-26T03:57:38.264Z,156.80
2022-09-26T04:00:07.330Z,167.50
2022-09-26T04:02:35.419Z,171.90
2022-09-26T04:05:03.425Z,175.20
2022-09-26T04:07:30.377Z,169.90
2022-09-26T04:09:57.938Z,169.10
2022-09-26T04:12:25.191Z,170.10
2022-09-26T04:15:07.297Z,141.40
2022-09-26T04:17:36.294Z,152.80
2022-09-26T04:20:04.269Z,167.40
2022-09-26T04:22:31.423Z,177.20
2022-09-26T04:24:58.064Z,164.40
2022-09-26T04:27:29.421Z,167.80
2022-09-26T04:29:57.086Z,178.90
2022-09-26T04:32:24.441Z,171.50
2022-09-26T04:34:51.397Z,154.00
2022-09-26T04:37:20.484Z,187.70
2022-09-26T04:39:48.351Z,176.00
2022-09-26T04:42:15.144Z,157.20
2022-09-26T04:44:42.959Z,176.60
2022-09-26T04:47:10.826Z,168.40
2022-09-26T04:49:37.572Z,188.60
2022-09-26T04:52:05.744Z,195.60
2022-09-26T04:54:36.885Z,198.90
2022-09-26T04:57:04.239Z,152.10
2022-09-26T04:59:30.984Z,169.30
2022-09-26T05:01:57.878Z,169.90
2022-09-26T05:04:27.845Z,175.60
2022-09-26T05:06:55.405Z,187.50
2022-09-26T05:09:22.767Z,175.10
2022-09-26T05:11:49.507Z,184.40
2022-09-26T05:14:18.405Z,173.80
2022-09-26T05:16:46.794Z,191.10
2022-09-26T05:19:13.730Z,196.80
2022-09-26T05:21:42.733Z,198.70
2022-09-26T05:24:28.941Z,146.20
2022-09-26T05:26:56.498Z,183.40
2022-09-26T05:29:23.449Z,184.00
2022-09-26T05:31:53.640Z,190.00
2022-09-26T05:34:20.729Z,174.10
2022-09-26T05:36:48.705Z,184.20
2022-09-26T05:39:37.815Z,207.40
2022-09-26T05:42:08.814Z,197.10
2022-09-26T05:44:38.627Z,200.60
2022-09-26T05:47:06.778Z,191.40
2022-09-26T05:49:35.379Z,189.90
2022-09-26T05:52:03.469Z,200.10
2022-09-26T05:54:30.594Z,216.40
2022-09-26T05:56:57.462Z,195.10
2022-09-26T05:59:24.406Z,203.70
2022-09-26T06:01:52.650Z,206.50
2022-09-26T06:04:20.882Z,188.80
2022-09-26T06:06:50.771Z,210.00
2022-09-26T06:09:17.715Z,209.10
2022-09-26T06:11:45.070Z,188.90
2022-09-26T06:14:13.704Z,184.80
2022-09-26T06:16:42.000Z,193.40
2022-09-26T06:19:09.665Z,195.40
2022-09-26T06:21:39.415Z,205.60
2022-09-26T06:24:06.438Z,186.40
2022-09-26T06:26:33.609Z,191.90
2022-09-26T06:29:01.176Z,218.50
2022-09-26T06:31:31.630Z,217.60
2022-09-26T06:36:27.948Z,177.30
2022-09-26T06:38:55.364Z,197.90
2022-09-26T06:41:23.188Z,173.50
2022-09-26T06:43:51.042Z,176.70
2022-09-26T06:46:18.269Z,197.80
2022-09-26T06:48:46.165Z,192.30
2022-09-26T06:51:13.730Z,191.30
2022-09-26T06:53:42.116Z,197.50
2022-09-26T06:56:09.263Z,187.50
2022-09-26T06:58:36.728Z,200.30
2022-09-26T07:01:06.026Z,185.60
2022-09-26T07:03:33.693Z,184.40
2022-09-26T07:06:00.334Z,184.90
2022-09-26T07:08:50.404Z,176.20
2022-09-26T07:11:42.108Z,172.60
2022-09-26T07:14:04.493Z,190.20
2022-09-26T07:16:31.797Z,162.90
2022-09-26T07:18:58.902Z,177.90
2022-09-26T07:21:26.151Z,162.90
2022-09-26T07:23:57.551Z,177.40
2022-09-26T07:26:24.958Z,162.90
2022-09-26T07:28:54.794Z,160.60
2022-09-26T07:31:23.210Z,159.20
2022-09-26T07:33:49.998Z,163.10
2022-09-26T07:36:17.965Z,155.00
2022-09-26T07:38:49.006Z,159.70
2022-09-26T07:41:16.462Z,171.30
2022-09-26T07:46:50.645Z,153.00
2022-09-26T07:49:37.708Z,146.40
2022-09-26T07:52:04.653Z,151.10
2022-09-26T07:54:31.906Z,153.20
2022-09-26T07:56:59.464Z,157.70
2022-09-26T07:59:27.740Z,143.70
2022-09-26T08:01:54.396Z,155.30
2022-09-26T08:04:21.321Z,166.10
2022-09-26T08:06:49.597Z,157.30
2022-09-26T08:09:17.774Z,146.50
2022-09-26T08:11:44.922Z,175.00
2022-09-26T08:14:12.987Z,150.00
2022-09-26T08:16:41.386Z,154.00
2022-09-26T08:19:08.533Z,144.40
2022-09-26T08:21:35.379Z,150.10
2022-09-26T08:24:03.551Z,153.70
2022-09-26T08:26:31.117Z,147.90
2022-09-26T08:28:59.476Z,148.50
2022-09-26T08:31:26.458Z,158.10
2022-09-26T08:33:53.398Z,163.50
2022-09-26T08:36:20.464Z,175.20
2022-09-26T08:38:49.767Z,156.60
2022-09-26T08:41:32.391Z,158.30
2022-09-26T08:44:09.917Z,158.60
2022-09-26T08:47:05.970Z,144.20
2022-09-26T08:50:09.362Z,156.80
2022-09-26T08:52:46.763Z,143.30
2022-09-26T08:55:20.425Z,142.60
2022-09-26T08:57:48.603Z,145.00
2022-09-26T09:00:20.683Z,152.90
2022-09-26T09:02:52.537Z,144.90
2022-09-26T09:05:26.672Z,147.30
2022-09-26T09:07:55.152Z,142.30
2022-09-26T09:10:37.876Z,148.50
2022-09-26T09:13:34.527Z,146.60
2022-09-26T09:16:39.517Z,143.40
2022-09-26T09:19:32.738Z,139.80
2022-09-26T09:22:06.556Z,130.00
2022-09-26T09:24:34.234Z,148.40
2022-09-26T09:30:44.738Z,143.70
2022-09-26T09:33:17.480Z,146.30
2022-09-26T09:36:10.383Z,152.50
2022-09-26T09:38:38.661Z,158.40
2022-09-26T09:41:13.699Z,150.90
2022-09-26T09:43:47.819Z,138.80
2022-09-26T09:46:40.325Z,132.30
2022-09-26T09:49:07.219Z,157.10
2022-09-26T09:51:58.751Z,157.00
2022-09-26T09:54:41.655Z,143.80
2022-09-26T09:57:34.006Z,155.80
2022-09-26T10:00:21.849Z,165.70
2022-09-26T10:03:02.232Z,167.80
2022-09-26T10:08:22.209Z,148.20
2022-09-26T10:11:25.822Z,155.70
2022-09-26T10:13:55.025Z,168.30
2022-09-26T10:16:23.213Z,166.50
2022-09-26T10:19:03.910Z,183.10
2022-09-26T10:21:33.653Z,158.10
2022-09-26T10:24:04.227Z,167.50
2022-09-26T10:26:38.998Z,162.40
2022-09-26T10:29:20.753Z,165.20
2022-09-26T10:31:48.622Z,169.80
2022-09-26T10:34:24.375Z,177.30
2022-09-26T10:36:52.649Z,164.00
2022-09-26T10:39:39.975Z,185.80
2022-09-26T10:42:15.204Z,201.90
2022-09-26T10:44:42.569Z,179.60
2022-09-26T10:47:13.609Z,199.50
2022-09-26T10:50:21.616Z,171.70
2022-09-26T10:53:16.791Z,173.20
2022-09-26T10:55:48.999Z,143.30
2022-09-26T10:58:23.409Z,156.40
2022-09-26T11:00:51.414Z,180.20
2022-09-26T11:03:43.199Z,172.10
2022-09-26T11:06:26.950Z,159.30
2022-09-26T11:08:57.857Z,155.80
2022-09-26T11:11:27.393Z,166.70
2022-09-26T11:14:02.939Z,164.10
2022-09-26T11:16:48.728Z,186.00
2022-09-26T11:19:39.018Z,155.40
2022-09-26T11:22:41.088Z,141.90
2022-09-26T11:25:26.676Z,148.80
2022-09-26T11:28:21.670Z,151.90
2022-09-26T11:30:48.537Z,159.90
2022-09-26T11:33:18.322Z,164.70
2022-09-26T11:35:49.310Z,139.70
2022-09-26T11:38:26.855Z,163.20
2022-09-26T11:41:10.899Z,155.30
2022-09-26T11:43:52.691Z,166.50
2022-09-26T11:46:46.927Z,188.10
2022-09-26T11:49:15.456Z,171.80
2022-09-26T11:51:51.817Z,180.20
2022-09-26T11:54:34.812Z,169.60
2022-09-26T11:57:40.671Z,162.00
2022-09-26T12:00:11.510Z,152.80
2022-09-26T12:03:06.532Z,185.00
2022-09-26T12:05:45.055Z,176.30
2022-09-26T12:08:18.656Z,172.10
2022-09-26T12:11:14.776Z,164.90
2022-09-26T12:14:16.003Z,192.80
2022-09-26T12:16:58.086Z,145.40
2022-09-26T12:19:36.127Z,158.80
2022-09-26T12:22:28.058Z,184.40
2022-09-26T12:25:20.449Z,186.60
2022-09-26T12:28:00.456Z,192.70
2022-09-26T12:30:54.799Z,190.90
2022-09-26T12:33:43.089Z,182.80
2022-09-26T12:36:39.934Z,170.40
2022-09-26T12:39:12.771Z,181.70
2022-09-26T12:41:51.336Z,180.20
2022-09-26T12:44:43.783Z,191.80
2022-09-26T12:47:52.435Z,187.30
2022-09-26T12:50:24.367Z,209.20
2022-09-26T12:52:54.080Z,207.60
2022-09-26T12:55:52.563Z,205.10
2022-09-26T12:58:19.609Z,182.70
2022-09-26T13:01:11.679Z,204.40
2022-09-26T13:03:38.996Z,192.70
2022-09-26T13:06:27.350Z,208.30
2022-09-26T13:09:32.279Z,200.40
2022-09-26T13:12:20.730Z,184.60
2022-09-26T13:15:24.850Z,186.70
2022-09-26T13:18:04.490Z,182.10
2022-09-26T13:20:54.788Z,175.70
2022-09-26T13:23:26.748Z,203.20
2022-09-26T13:25:55.038Z,191.30
2022-09-26T13:28:23.612Z,212.70
2022-09-26T13:31:01.327Z,213.60
2022-09-26T13:33:35.570Z,195.90
2022-09-26T13:36:03.299Z,188.30
2022-09-26T13:38:35.056Z,196.30
2022-09-26T13:43:53.019Z,167.80
2022-09-26T13:46:22.578Z,171.00
2022-09-26T13:49:00.276Z,182.30
2022-09-26T13:51:49.728Z,184.80
2022-09-26T13:54:30.168Z,184.60
2022-09-26T13:56:56.908Z,200.40
2022-09-26T13:59:31.842Z,194.30
2022-09-26T14:02:19.210Z,203.70
2022-09-26T14:04:48.069Z,195.90
2022-09-26T14:07:35.286Z,223.20
2022-09-26T14:10:02.135Z,205.40
2022-09-26T14:12:33.378Z,210.30
2022-09-26T14:15:15.793Z,200.20
2022-09-26T14:17:42.636Z,184.40
2022-09-26T14:20:27.579Z,188.20
2022-09-26T14:22:56.307Z,179.90
2022-09-26T14:25:45.776Z,192.40
2022-09-26T14:28:32.337Z,181.50
2022-09-26T14:31:21.711Z,193.90
2022-09-26T14:33:50.340Z,179.10
2022-09-26T14:36:28.488Z,203.60
2022-09-26T14:38:56.322Z,183.50
2022-09-26T14:41:30.149Z,183.30
2022-09-26T14:44:03.250Z,166.70
2022-09-26T14:46:32.927Z,187.40
2022-09-26T14:49:02.650Z,168.50
2022-09-26T14:51:36.595Z,185.40
2022-09-26T14:54:31.471Z,166.60
2022-09-26T14:57:03.745Z,165.40
2022-09-26T14:59:33.458Z,174.40
2022-09-26T15:02:25.539Z,179.40
2022-09-26T15:04:59.428Z,175.90
2022-09-26T15:07:27.074Z,175.10
2022-09-26T15:10:07.161Z,177.90
2022-09-26T15:12:39.306Z,186.00
2022-09-26T15:15:26.907Z,177.20
2022-09-26T15:17:57.522Z,170.90
2022-09-26T15:22:52.295Z,155.90
2022-09-26T15:25:22.967Z,178.20
2022-09-26T15:27:53.523Z,168.00
2022-09-26T15:32:57.089Z,150.80
2022-09-26T15:35:26.292Z,169.30
2022-09-26T15:38:00.107Z,163.80
2022-09-26T15:40:29.315Z,172.50
2022-09-26T15:43:02.487Z,171.60
2022-09-26T15:45:45.920Z,170.90
2022-09-26T15:48:19.216Z,182.80
2022-09-26T15:50:48.660Z,174.90
2022-09-26T15:53:21.713Z,173.70
2022-09-26T15:55:55.713Z,179.40
2022-09-26T15:58:46.542Z,185.00
2022-09-26T16:01:15.658Z,176.00
2022-09-26T16:03:58.869Z,166.20
2022-09-26T16:06:35.893Z,166.20
2022-09-26T16:09:34.147Z,184.90
2022-09-26T16:12:04.196Z,180.90
2022-09-26T16:14:46.268Z,181.00
2022-09-26T16:17:18.589Z,181.60
2022-09-26T16:20:02.191Z,197.50
2022-09-26T16:22:35.803Z,175.80
2022-09-26T16:25:55.883Z,179.90
2022-09-26T16:28:41.564Z,185.60
2022-09-26T16:31:14.399Z,190.00
2022-09-26T16:33:41.963Z,189.30
2022-09-26T16:36:14.582Z,200.20
2022-09-26T16:38:41.732Z,200.20
2022-09-26T16:41:56.164Z,217.50
2022-09-26T16:44:26.164Z,199.60
2022-09-26T16:49:47.851Z,187.00
2022-09-26T16:52:28.110Z,196.50
2022-09-26T16:55:00.021Z,188.00
2022-09-26T16:57:28.953Z,220.50
2022-09-26T17:00:23.133Z,199.10
2022-09-26T17:02:50.348Z,204.30
2022-09-26T17:05:20.399Z,188.30
2022-09-26T17:07:48.524Z,204.20
2022-09-26T17:10:17.190Z,204.40
2022-09-26T17:12:51.077Z,200.30
2022-09-26T17:15:27.579Z,217.40
2022-09-26T17:17:57.350Z,204.90
2022-09-26T17:20:24.092Z,206.30
2022-09-26T17:22:51.345Z,214.50
2022-09-26T17:25:18.641Z,220.50
2022-09-26T17:27:47.075Z,213.80
2022-09-26T17:30:16.606Z,201.40
2022-09-26T17:32:49.130Z,218.00
2022-09-26T17:35:27.171Z,208.50
2022-09-26T17:37:55.787Z,205.10
2022-09-26T17:40:25.658Z,200.00
2022-09-26T17:42:54.656Z,205.20
2022-09-26T17:45:25.452Z,216.80
2022-09-26T17:47:52.724Z,215.60
2022-09-26T17:50:25.213Z,222.50
2022-09-26T17:52:53.674Z,221.00
2022-09-26T17:55:21.190Z,216.70
2022-09-26T17:57:48.708Z,219.50
2022-09-26T18:00:17.504Z,227.10
2022-09-26T18:02:56.160Z,226.80
2022-09-26T18:05:42.640Z,217.40
2022-09-26T18:08:15.745Z,221.60
2022-09-26T18:10:49.036Z,244.70
2022-09-26T18:13:16.514Z,226.90
2022-09-26T18:15:44.510Z,227.10
2022-09-26T18:18:14.313Z,232.60
2022-09-26T18:20:40.961Z,231.60
2022-09-26T18:23:07.813Z,211.70
2022-09-26T18:25:36.816Z,237.20
2022-09-26T18:28:06.130Z,222.90
2022-09-26T18:30:42.741Z,212.20
2022-09-26T18:33:11.097Z,238.90
2022-09-26T18:35:40.117Z,243.50
2022-09-26T18:38:07.154Z,224.50
2022-09-26T18:40:37.663Z,225.40
2022-09-26T18:45:36.309Z,202.30
2022-09-26T18:48:10.562Z,223.90
2022-09-26T18:50:39.022Z,242.50
2022-09-26T18:53:19.610Z,235.60
2022-09-26T18:56:05.701Z,214.60
2022-09-26T18:58:33.377Z,224.70
2022-09-26T19:01:08.448Z,226.00
2022-09-26T19:03:36.597Z,208.60
2022-09-26T19:06:11.439Z,247.50
2022-09-26T19:08:45.868Z,217.60
2022-09-26T19:11:20.437Z,238.00
2022-09-26T19:13:49.092Z,241.40
2022-09-26T19:16:16.509Z,232.90
2022-09-26T19:18:45.375Z,229.50
2022-09-26T19:21:51.850Z,240.90
2022-09-26T19:24:28.432Z,229.80
2022-09-26T19:26:58.649Z,235.00
2022-09-26T19:29:38.451Z,225.70
2022-09-26T19:32:05.850Z,238.50
2022-09-26T19:34:33.060Z,218.00
2022-09-26T19:37:02.486Z,216.40
2022-09-26T19:39:29.522Z,238.30
2022-09-26T19:41:56.377Z,227.60
2022-09-26T19:44:24.247Z,212.10
2022-09-26T19:46:51.407Z,226.00
2022-09-26T19:49:19.284Z,220.80
2022-09-26T19:51:46.243Z,248.20
2022-09-26T19:54:17.531Z,231.60
2022-09-26T19:56:46.193Z,234.70
2022-09-26T19:59:13.559Z,233.90
2022-09-26T20:01:41.682Z,236.20
2022-09-26T20:04:14.132Z,243.80
2022-09-26T20:06:41.498Z,217.80
2022-09-26T20:09:18.692Z,218.40
2022-09-26T20:11:46.370Z,219.30
2022-09-26T20:14:25.510Z,224.50
2022-09-26T20:16:54.917Z,233.90
2022-09-26T20:19:27.874Z,218.40
2022-09-26T20:21:59.283Z,195.90
2022-09-26T20:24:26.236Z,223.70
2022-09-26T20:26:53.193Z,208.90
2022-09-26T20:29:19.942Z,224.90
2022-09-26T20:31:47.818Z,221.20
2022-09-26T20:34:16.721Z,219.90
2022-09-26T20:36:46.120Z,224.00
2022-09-26T20:39:31.624Z,222.20
2022-09-26T20:41:58.578Z,221.70
2022-09-26T20:44:27.857Z,233.90
2022-09-26T20:46:57.089Z,230.20
2022-09-26T20:49:27.899Z,231.40
2022-09-26T20:51:54.590Z,236.60
2022-09-26T20:54:32.092Z,233.00
2022-09-26T20:57:00.792Z,219.60
2022-09-26T20:59:28.672Z,243.70
2022-09-26T21:01:57.057Z,249.30
2022-09-26T21:04:29.438Z,216.50
2022-09-26T21:06:56.703Z,242.70
2022-09-26T21:09:24.375Z,230.80
2022-09-26T21:11:52.045Z,229.20
2022-09-26T21:14:19.208Z,243.00
2022-09-26T21:16:50.855Z,224.70
2022-09-26T21:19:20.803Z,228.40
2022-09-26T21:21:47.445Z,216.00
2022-09-26T21:24:24.165Z,239.70
2022-09-26T21:26:51.769Z,237.20
2022-09-26T21:29:18.714Z,222.20
2022-09-26T21:31:51.241Z,251.40
2022-09-26T21:34:23.010Z,236.40
2022-09-26T21:36:51.094Z,230.60
2022-09-26T21:39:18.595Z,214.70
2022-09-26T21:41:49.309Z,236.70
2022-09-26T21:46:45.685Z,199.80
2022-09-26T21:49:13.664Z,212.50
2022-09-26T21:51:40.617Z,240.60
2022-09-26T21:54:16.866Z,235.90
2022-09-26T21:56:49.369Z,249.50
2022-09-26T21:59:18.864Z,235.50
2022-09-26T22:01:47.519Z,234.60
2022-09-26T22:04:14.530Z,254.70
2022-09-26T22:06:41.786Z,244.60
2022-09-26T22:09:08.652Z,217.70
2022-09-26T22:11:36.396Z,238.30
2022-09-26T22:14:04.577Z,238.10
2022-09-26T22:16:31.766Z,226.90
2022-09-26T22:18:58.685Z,247.30
2022-09-26T22:21:25.735Z,272.20
2022-09-26T22:23:52.705Z,249.70
2022-09-26T22:26:21.071Z,272.10
2022-09-26T22:28:48.626Z,247.40
2022-09-26T22:31:16.135Z,271.40
2022-09-26T22:33:43.554Z,260.90
2022-09-26T22:36:10.466Z,259.10
2022-09-26T22:38:38.889Z,259.20
2022-09-26T22:41:06.654Z,261.00
2022-09-26T22:43:33.910Z,251.20
2022-09-26T22:46:08.006Z,269.40
2022-09-26T22:48:36.003Z,254.90
2022-09-26T22:51:04.179Z,293.60
2022-09-26T22:53:32.056Z,260.90
2022-09-26T22:56:04.634Z,278.40
2022-09-26T22:58:35.986Z,269.40
2022-09-26T23:01:09.956Z,268.20
2022-09-26T23:03:37.563Z,267.60
2022-09-26T23:06:05.330Z,280.80
2022-09-26T23:08:33.609Z,279.40
2022-09-26T23:11:01.996Z,277.20
2022-09-26T23:13:31.401Z,260.20
2022-09-26T23:16:09.613Z,275.50
2022-09-26T23:18:38.507Z,270.70
2022-09-26T23:21:18.458Z,282.20
2022-09-26T23:23:48.172Z,274.90
2022-09-26T23:26:26.492Z,276.00
2022-09-26T23:28:54.032Z,272.60
2022-09-26T23:31:21.269Z,299.70
2022-09-26T23:33:48.566Z,308.90
2022-09-26T23:36:15.517Z,293.30
2022-09-26T23:38:42.979Z,281.50
2022-09-26T23:41:10.645Z,304.90
2022-09-26T23:43:38.308Z,278.20
2022-09-26T23:46:06.168Z,293.20
2022-09-26T23:48:33.263Z,294.50
2022-09-26T23:51:02.023Z,302.20
2022-09-26T23:53:29.274Z,293.40
2022-09-26T23:56:06.976Z,282.70
2022-09-26T23:58:35.154Z,291.50
